createdAt,value
2018-01-26T00:02:15.039Z,36.70
2018-01-26T00:04:42.592Z,29.93
2018-01-26T00:07:10.890Z,25.73
2018-01-26T00:09:38.496Z,28.07
2018-01-26T00:12:06.098Z,31.13
2018-01-26T00:14:34.402Z,29.67
2018-01-26T00:17:02.327Z,30.80
2018-01-26T00:19:30.680Z,26.47
2018-01-26T00:21:58.514Z,25.13
2018-01-26T00:24:26.065Z,24.70
2018-01-26T00:26:53.596Z,23.10
2018-01-26T00:29:21.343Z,22.47
2018-01-26T00:31:48.923Z,24.23
2018-01-26T00:34:16.524Z,24.00
2018-01-26T00:36:44.045Z,24.33
2018-01-26T00:39:11.594Z,24.53
2018-01-26T00:41:39.224Z,25.13
2018-01-26T00:44:06.961Z,22.90
2018-01-26T00:46:34.476Z,25.47
2018-01-26T00:49:02.035Z,24.17
2018-01-26T00:51:29.653Z,24.47
2018-01-26T00:53:57.457Z,23.37
2018-01-26T00:56:25.085Z,23.33
2018-01-26T00:58:52.803Z,20.13
2018-01-26T01:01:21.632Z,15.13
2018-01-26T01:03:49.748Z,15.60
2018-01-26T01:06:17.395Z,11.63
2018-01-26T01:08:44.915Z,10.70
2018-01-26T01:11:12.488Z,8.97
2018-01-26T01:13:40.153Z,8.27
2018-01-26T01:16:07.843Z,7.57
2018-01-26T01:18:35.843Z,7.90
2018-01-26T01:21:03.395Z,8.10
2018-01-26T01:23:31.167Z,9.97
2018-01-26T01:25:58.704Z,9.40
2018-01-26T01:28:26.279Z,9.33
2018-01-26T01:30:54.020Z,9.47
2018-01-26T01:33:22.325Z,8.37
2018-01-26T01:35:50.818Z,10.13
2018-01-26T01:38:19.105Z,11.33
2018-01-26T01:40:47.384Z,10.30
2018-01-26T01:43:15.694Z,12.30
2018-01-26T01:45:43.373Z,12.03
2018-01-26T01:48:11.926Z,9.00
2018-01-26T01:50:39.651Z,8.20
2018-01-26T01:53:07.950Z,13.63
2018-01-26T01:55:35.613Z,10.30
2018-01-26T01:58:04.014Z,10.87
2018-01-26T02:00:31.717Z,11.67
2018-01-26T02:02:59.334Z,12.13
2018-01-26T02:05:26.900Z,10.97
2018-01-26T02:07:54.629Z,12.20
2018-01-26T02:10:22.660Z,11.83
2018-01-26T02:12:50.238Z,12.53
2018-01-26T02:15:17.754Z,12.63
2018-01-26T02:17:45.523Z,13.77
2018-01-26T02:20:13.063Z,11.70
2018-01-26T02:22:40.895Z,11.47
2018-01-26T02:25:09.017Z,13.07
2018-01-26T02:27:37.206Z,14.60
2018-01-26T02:30:04.738Z,16.57
2018-01-26T02:32:32.300Z,17.20
2018-01-26T02:35:00.767Z,17.00
2018-01-26T02:37:29.113Z,18.33
2018-01-26T02:39:57.889Z,19.07
2018-01-26T02:42:25.532Z,19.30
2018-01-26T02:44:53.075Z,19.23
2018-01-26T02:47:20.661Z,19.50
2018-01-26T02:49:48.890Z,21.07
2018-01-26T02:52:16.453Z,22.27
2018-01-26T02:54:44.234Z,22.57
2018-01-26T02:57:11.828Z,24.23
2018-01-26T02:59:39.398Z,29.17
2018-01-26T03:02:06.991Z,26.87
2018-01-26T03:04:34.592Z,25.60
2018-01-26T03:07:02.175Z,15.33
2018-01-26T03:09:29.907Z,16.93
2018-01-26T03:11:57.650Z,18.17
2018-01-26T03:14:25.192Z,16.70
2018-01-26T03:16:53.643Z,18.93
2018-01-26T03:19:21.352Z,18.57
2018-01-26T03:21:49.059Z,24.60
2018-01-26T03:24:16.788Z,24.73
2018-01-26T03:26:44.324Z,26.67
2018-01-26T03:29:11.841Z,23.17
2018-01-26T03:31:39.432Z,21.13
2018-01-26T03:34:08.369Z,24.57
2018-01-26T03:36:36.297Z,25.13
2018-01-26T03:39:04.112Z,25.13
2018-01-26T03:41:31.663Z,19.93
2018-01-26T03:43:59.196Z,24.60
2018-01-26T03:46:27.596Z,24.10
2018-01-26T03:48:55.425Z,19.50
2018-01-26T03:51:23.848Z,21.13
2018-01-26T03:53:51.380Z,25.90
2018-01-26T03:56:19.207Z,25.37
2018-01-26T03:58:46.748Z,22.73
2018-01-26T04:01:14.290Z,23.73
2018-01-26T04:03:42.535Z,17.87
2018-01-26T04:06:11.512Z,21.93
2018-01-26T04:08:39.083Z,20.33
2018-01-26T04:11:06.792Z,22.33
2018-01-26T04:13:34.338Z,28.27
2018-01-26T04:16:01.883Z,24.73
2018-01-26T04:18:29.411Z,21.60
2018-01-26T04:20:57.835Z,22.63
2018-01-26T04:23:25.983Z,21.80
2018-01-26T04:25:53.552Z,19.93
2018-01-26T04:28:21.282Z,18.50
2018-01-26T04:30:48.817Z,19.80
2018-01-26T04:33:16.470Z,17.47
2018-01-26T04:35:44.004Z,18.60
2018-01-26T04:38:12.415Z,15.27
2018-01-26T04:40:40.143Z,17.80
2018-01-26T04:43:07.862Z,20.40
2018-01-26T04:45:35.394Z,22.80
2018-01-26T04:48:03.774Z,26.20
2018-01-26T04:50:32.253Z,29.50
2018-01-26T04:52:59.826Z,31.47
2018-01-26T04:55:27.547Z,30.50
2018-01-26T04:57:56.442Z,32.93
2018-01-26T05:00:24.003Z,31.97
2018-01-26T05:02:52.615Z,35.97
2018-01-26T05:05:20.276Z,34.73
2018-01-26T05:07:48.338Z,29.57
2018-01-26T05:10:16.031Z,37.93
2018-01-26T05:12:43.747Z,35.70
2018-01-26T05:15:12.778Z,42.53
2018-01-26T05:17:40.364Z,36.43
2018-01-26T05:20:07.921Z,39.77
2018-01-26T05:22:35.663Z,34.87
2018-01-26T05:25:03.210Z,37.27
2018-01-26T05:27:30.874Z,37.23
2018-01-26T05:29:58.459Z,36.17
2018-01-26T05:32:26.045Z,32.43
2018-01-26T05:34:54.497Z,36.37
2018-01-26T05:37:22.016Z,39.30
2018-01-26T05:39:50.400Z,36.97
2018-01-26T05:42:17.956Z,36.83
2018-01-26T05:44:45.690Z,42.57
2018-01-26T05:47:13.220Z,38.27
2018-01-26T05:49:40.763Z,38.37
2018-01-26T05:52:09.043Z,43.40
2018-01-26T05:54:36.715Z,39.67
2018-01-26T05:57:04.227Z,34.97
2018-01-26T05:59:32.566Z,44.10
2018-01-26T06:02:00.074Z,41.73
2018-01-26T06:04:27.633Z,40.40
2018-01-26T06:06:55.143Z,41.17
2018-01-26T06:09:23.292Z,45.40
2018-01-26T06:11:50.830Z,43.37
2018-01-26T06:14:19.049Z,41.57
2018-01-26T06:16:46.815Z,40.93
2018-01-26T06:19:14.646Z,46.07
2018-01-26T06:21:42.204Z,45.00
2018-01-26T06:24:09.915Z,42.73
2018-01-26T06:26:37.426Z,46.17
2018-01-26T06:29:04.950Z,44.37
2018-01-26T06:31:33.367Z,42.17
2018-01-26T06:34:01.407Z,43.93
2018-01-26T06:36:29.700Z,43.53
2018-01-26T06:38:57.332Z,42.47
2018-01-26T06:41:24.884Z,44.73
2018-01-26T06:43:52.814Z,41.97
2018-01-26T06:46:21.466Z,43.27
2018-01-26T06:48:50.402Z,46.87
2018-01-26T06:51:18.426Z,44.07
2018-01-26T06:53:46.707Z,43.27
2018-01-26T06:56:15.137Z,44.80
2018-01-26T06:58:42.701Z,43.23
2018-01-26T07:01:11.078Z,44.33
2018-01-26T07:03:39.084Z,39.23
2018-01-26T07:06:07.596Z,37.57
2018-01-26T07:08:35.266Z,36.80
2018-01-26T07:11:03.324Z,39.30
2018-01-26T07:13:31.594Z,39.37
2018-01-26T07:15:59.142Z,43.33
2018-01-26T07:18:27.434Z,42.40
2018-01-26T07:20:55.052Z,40.50
2018-01-26T07:23:22.899Z,45.37
2018-01-26T07:25:51.251Z,40.53
2018-01-26T07:28:18.870Z,45.47
2018-01-26T07:30:46.605Z,43.73
2018-01-26T07:33:14.168Z,41.73
2018-01-26T07:35:42.274Z,48.50
2018-01-26T07:38:10.344Z,39.87
2018-01-26T07:40:37.858Z,39.10
2018-01-26T07:43:05.935Z,46.57
2018-01-26T07:45:33.584Z,40.47
2018-01-26T07:48:01.283Z,37.63
2018-01-26T07:50:28.899Z,37.40
2018-01-26T07:52:56.778Z,38.93
2018-01-26T07:55:24.300Z,36.23
2018-01-26T07:57:51.993Z,36.33
2018-01-26T08:00:19.671Z,36.37
2018-01-26T08:02:47.682Z,37.07
2018-01-26T08:05:15.859Z,37.60
2018-01-26T08:07:44.589Z,37.20
2018-01-26T08:10:12.672Z,37.43
2018-01-26T08:12:40.238Z,40.10
2018-01-26T08:15:07.777Z,37.97
2018-01-26T08:17:35.392Z,38.93
2018-01-26T08:20:03.004Z,37.60
2018-01-26T08:22:30.620Z,36.70
2018-01-26T08:24:58.939Z,39.03
2018-01-26T08:27:26.614Z,36.87
2018-01-26T08:29:54.151Z,37.07
2018-01-26T08:32:22.051Z,36.30
2018-01-26T08:34:49.816Z,38.70
2018-01-26T08:37:18.776Z,38.40
2018-01-26T08:39:46.568Z,37.47
2018-01-26T08:42:14.144Z,39.00
2018-01-26T08:44:41.704Z,36.13
2018-01-26T08:47:09.542Z,36.63
2018-01-26T08:49:37.043Z,37.93
2018-01-26T08:52:04.590Z,38.33
2018-01-26T08:54:32.870Z,37.97
2018-01-26T08:57:00.457Z,40.03
2018-01-26T08:59:28.247Z,38.57
2018-01-26T09:01:55.820Z,39.67
2018-01-26T09:04:23.354Z,38.63
2018-01-26T09:06:52.624Z,37.83
2018-01-26T09:09:20.284Z,36.67
2018-01-26T09:11:48.346Z,37.77
2018-01-26T09:14:16.499Z,35.93
2018-01-26T09:16:44.083Z,35.17
2018-01-26T09:19:11.713Z,34.90
2018-01-26T09:21:39.447Z,36.23
2018-01-26T09:24:07.138Z,34.57
2018-01-26T09:26:34.657Z,36.10
2018-01-26T09:29:02.186Z,36.60
2018-01-26T09:31:29.701Z,39.90
2018-01-26T09:33:58.102Z,42.17
2018-01-26T09:36:26.023Z,38.10
2018-01-26T09:38:54.382Z,37.03
2018-01-26T09:41:21.924Z,37.13
2018-01-26T09:43:50.596Z,37.27
2018-01-26T09:46:18.471Z,35.93
2018-01-26T09:48:47.298Z,37.47
2018-01-26T09:51:29.324Z,36.77
2018-01-26T09:53:56.912Z,44.03
2018-01-26T09:56:24.688Z,38.33
2018-01-26T09:58:52.374Z,37.23
2018-01-26T10:01:20.177Z,36.70
2018-01-26T10:03:49.486Z,39.57
2018-01-26T10:06:17.069Z,38.87
2018-01-26T10:08:44.729Z,39.40
2018-01-26T10:11:12.367Z,42.90
2018-01-26T10:13:40.264Z,43.47
2018-01-26T10:16:08.818Z,41.33
2018-01-26T10:18:36.536Z,44.03
2018-01-26T10:21:04.851Z,45.43
2018-01-26T10:23:33.773Z,49.10
2018-01-26T10:26:01.526Z,45.30
2018-01-26T10:28:29.227Z,49.67
2018-01-26T10:30:56.887Z,51.80
2018-01-26T10:33:25.125Z,49.13
2018-01-26T10:35:52.690Z,47.70
2018-01-26T10:38:20.281Z,44.50
2018-01-26T10:40:48.082Z,45.53
2018-01-26T10:43:16.938Z,43.57
2018-01-26T10:45:45.344Z,44.63
2018-01-26T10:48:13.141Z,45.00
2018-01-26T10:50:40.790Z,47.67
2018-01-26T10:53:08.385Z,43.33
2018-01-26T10:55:36.122Z,45.00
2018-01-26T10:58:04.891Z,44.33
2018-01-26T11:00:33.671Z,45.17
2018-01-26T11:03:01.287Z,47.37
2018-01-26T11:05:28.929Z,46.57
2018-01-26T11:07:56.789Z,44.77
2018-01-26T11:10:24.586Z,47.27
2018-01-26T11:12:53.082Z,42.77
2018-01-26T11:15:20.941Z,42.87
2018-01-26T11:17:50.710Z,44.80
2018-01-26T11:20:19.159Z,42.07
2018-01-26T11:22:48.631Z,41.93
2018-01-26T11:25:16.845Z,43.50
2018-01-26T11:27:45.674Z,41.47
2018-01-26T11:30:13.604Z,38.80
2018-01-26T11:32:41.257Z,40.00
2018-01-26T11:35:08.955Z,37.93
2018-01-26T11:37:37.261Z,39.87
2018-01-26T11:40:04.825Z,37.53
2018-01-26T11:42:32.387Z,39.27
2018-01-26T11:45:00.026Z,27.47
2018-01-26T11:47:28.098Z,26.33
2018-01-26T11:49:56.834Z,26.63
2018-01-26T11:52:25.930Z,28.60
2018-01-26T11:54:53.534Z,25.63
2018-01-26T11:57:21.126Z,23.53
2018-01-26T11:59:48.732Z,22.17
2018-01-26T12:02:17.361Z,19.70
2018-01-26T12:04:45.110Z,19.80
2018-01-26T12:07:13.510Z,17.70
2018-01-26T12:09:42.532Z,15.70
2018-01-26T12:12:10.166Z,15.23
2018-01-26T12:14:37.829Z,13.17
2018-01-26T12:17:05.419Z,11.73
2018-01-26T12:19:32.952Z,13.77
2018-01-26T12:22:01.121Z,8.60
2018-01-26T12:24:28.982Z,9.33
2018-01-26T12:26:56.788Z,9.67
2018-01-26T12:29:24.337Z,10.33
2018-01-26T12:31:51.938Z,9.57
2018-01-26T12:34:19.534Z,7.53
2018-01-26T12:36:47.201Z,8.33
2018-01-26T12:39:14.888Z,9.50
2018-01-26T12:41:42.806Z,7.80
2018-01-26T12:44:10.456Z,7.00
2018-01-26T12:46:38.292Z,6.87
2018-01-26T12:49:05.919Z,6.93
2018-01-26T12:51:33.632Z,7.23
2018-01-26T12:54:01.213Z,7.57
2018-01-26T12:56:28.825Z,8.23
2018-01-26T12:58:56.453Z,10.77
2018-01-26T13:01:24.491Z,8.67
2018-01-26T13:03:53.048Z,11.50
2018-01-26T13:06:20.611Z,7.47
2018-01-26T13:08:48.799Z,9.43
2018-01-26T13:11:16.404Z,6.73
2018-01-26T13:13:44.038Z,7.83
2018-01-26T13:16:11.703Z,6.83
2018-01-26T13:18:40.135Z,6.30
2018-01-26T13:21:07.741Z,6.80
2018-01-26T13:23:35.326Z,7.17
2018-01-26T13:26:03.104Z,8.00
2018-01-26T13:28:30.896Z,6.40
2018-01-26T13:30:58.696Z,5.50
2018-01-26T13:33:27.207Z,7.30
2018-01-26T13:35:54.897Z,6.10
2018-01-26T13:38:23.489Z,7.73
2018-01-26T13:40:51.162Z,6.20
2018-01-26T13:43:19.131Z,5.70
2018-01-26T13:45:46.861Z,5.60
2018-01-26T13:48:14.885Z,5.63
2018-01-26T13:50:42.898Z,6.57
2018-01-26T13:53:10.470Z,5.73
2018-01-26T13:55:38.169Z,5.80
2018-01-26T13:58:06.489Z,5.60
2018-01-26T14:00:34.082Z,5.63
2018-01-26T14:03:01.620Z,7.47
2018-01-26T14:05:29.162Z,6.97
2018-01-26T14:07:56.710Z,8.87
2018-01-26T14:10:25.125Z,7.50
2018-01-26T14:12:52.646Z,6.63
2018-01-26T14:15:20.985Z,16.30
2018-01-26T14:17:49.074Z,6.67
2018-01-26T14:20:16.689Z,8.67
2018-01-26T14:22:44.465Z,11.03
2018-01-26T14:25:12.174Z,8.73
2018-01-26T14:27:39.689Z,7.17
2018-01-26T14:30:07.354Z,8.37
2018-01-26T14:32:34.922Z,6.97
2018-01-26T14:35:02.463Z,17.67
2018-01-26T14:37:30.308Z,13.60
2018-01-26T14:39:59.328Z,6.80
2018-01-26T14:42:27.555Z,7.23
2018-01-26T14:44:55.181Z,6.30
2018-01-26T14:47:22.822Z,5.87
2018-01-26T14:49:50.353Z,6.53
2018-01-26T14:52:18.700Z,5.67
2018-01-26T14:54:46.307Z,5.73
2018-01-26T14:57:13.913Z,7.10
2018-01-26T14:59:41.539Z,6.40
2018-01-26T15:02:09.118Z,8.87
2018-01-26T15:04:37.602Z,7.10
2018-01-26T15:07:05.205Z,7.13
2018-01-26T15:09:32.774Z,8.50
2018-01-26T15:12:00.368Z,9.03
2018-01-26T15:14:28.064Z,10.23
2018-01-26T15:16:56.097Z,9.10
2018-01-26T15:19:25.273Z,7.50
2018-01-26T15:21:53.601Z,17.33
2018-01-26T15:24:21.247Z,23.47
2018-01-26T15:26:49.749Z,10.67
2018-01-26T15:29:17.476Z,10.57
2018-01-26T15:31:45.203Z,11.20
2018-01-26T15:34:14.193Z,12.30
2018-01-26T15:36:43.166Z,11.93
2018-01-26T15:39:11.403Z,10.97
2018-01-26T15:41:39.094Z,12.47
2018-01-26T15:44:06.872Z,10.63
2018-01-26T15:46:34.486Z,11.77
2018-01-26T15:49:02.230Z,12.17
2018-01-26T15:51:29.967Z,12.93
2018-01-26T15:53:57.527Z,10.57
2018-01-26T15:56:25.181Z,13.30
2018-01-26T15:58:52.789Z,10.77
2018-01-26T16:01:20.470Z,10.70
2018-01-26T16:03:48.182Z,13.90
2018-01-26T16:06:16.461Z,10.93
2018-01-26T16:08:44.046Z,10.77
2018-01-26T16:11:11.631Z,12.87
2018-01-26T16:13:39.171Z,12.00
2018-01-26T16:16:06.730Z,9.70
2018-01-26T16:18:35.043Z,10.73
2018-01-26T16:21:02.765Z,19.13
2018-01-26T16:23:30.624Z,11.77
2018-01-26T16:25:59.651Z,11.23
2018-01-26T16:28:27.338Z,30.20
2018-01-26T16:30:55.433Z,12.70
2018-01-26T16:33:23.763Z,12.17
2018-01-26T16:35:51.298Z,13.50
2018-01-26T16:38:19.771Z,12.53
2018-01-26T16:40:49.279Z,13.37
2018-01-26T16:43:16.957Z,13.83
2018-01-26T16:45:46.501Z,18.73
2018-01-26T16:48:14.360Z,15.30
2018-01-26T16:50:41.884Z,16.20
2018-01-26T16:53:09.895Z,17.70
2018-01-26T16:55:38.046Z,14.27
2018-01-26T16:58:05.600Z,13.63
2018-01-26T17:00:34.390Z,13.83
2018-01-26T17:03:01.895Z,14.13
2018-01-26T17:05:29.533Z,14.77
2018-01-26T17:07:57.153Z,13.80
2018-01-26T17:10:26.034Z,15.17
2018-01-26T17:12:56.203Z,14.37
2018-01-26T17:15:23.787Z,16.07
2018-01-26T17:17:51.472Z,16.43
2018-01-26T17:20:19.154Z,15.50
2018-01-26T17:22:46.842Z,14.60
2018-01-26T17:25:14.752Z,14.33
2018-01-26T17:27:42.494Z,15.53
2018-01-26T17:30:10.233Z,15.67
2018-01-26T17:32:37.848Z,32.73
2018-01-26T17:35:05.458Z,41.03
2018-01-26T17:37:33.019Z,19.73
2018-01-26T17:40:00.691Z,18.20
2018-01-26T17:42:29.119Z,18.57
2018-01-26T17:44:57.005Z,13.87
2018-01-26T17:47:24.605Z,16.40
2018-01-26T17:49:52.405Z,14.93
2018-01-26T17:52:20.002Z,15.23
2018-01-26T17:54:48.079Z,14.77
2018-01-26T17:57:15.760Z,16.20
2018-01-26T17:59:43.317Z,15.50
2018-01-26T18:02:11.212Z,17.33
2018-01-26T18:04:39.038Z,12.43
2018-01-26T18:07:06.697Z,12.80
2018-01-26T18:09:34.240Z,12.70
2018-01-26T18:12:02.359Z,14.80
2018-01-26T18:14:29.954Z,14.53
2018-01-26T18:16:57.766Z,29.63
2018-01-26T18:19:25.460Z,30.63
2018-01-26T18:21:53.023Z,15.07
2018-01-26T18:24:20.991Z,15.00
2018-01-26T18:26:49.313Z,14.93
2018-01-26T18:29:16.869Z,14.87
2018-01-26T18:31:45.322Z,15.17
2018-01-26T18:34:12.866Z,14.87
2018-01-26T18:36:40.625Z,15.97
2018-01-26T18:39:08.175Z,14.97
2018-01-26T18:41:35.933Z,17.63
2018-01-26T18:44:03.664Z,20.27
2018-01-26T18:46:32.091Z,18.37
2018-01-26T18:49:00.271Z,16.43
2018-01-26T18:51:27.844Z,16.47
2018-01-26T18:53:56.262Z,15.73
2018-01-26T18:56:24.359Z,18.77
2018-01-26T18:58:51.889Z,17.03
2018-01-26T19:01:19.641Z,20.07
2018-01-26T19:03:47.197Z,18.23
2018-01-26T19:06:15.658Z,17.90
2018-01-26T19:08:43.179Z,31.80
2018-01-26T19:11:10.787Z,18.97
2018-01-26T19:13:38.383Z,18.07
2018-01-26T19:16:05.963Z,17.50
2018-01-26T19:18:33.705Z,18.07
2018-01-26T19:21:01.299Z,20.10
2018-01-26T19:23:28.893Z,18.57
2018-01-26T19:25:56.658Z,19.07
2018-01-26T19:28:26.352Z,19.07
2018-01-26T19:30:54.640Z,19.27
2018-01-26T19:33:22.202Z,18.63
2018-01-26T19:35:49.855Z,18.40
2018-01-26T19:38:17.378Z,19.57
2018-01-26T19:40:45.743Z,18.80
2018-01-26T19:43:13.259Z,32.27
2018-01-26T19:45:41.100Z,31.67
2018-01-26T19:48:08.740Z,20.33
2018-01-26T19:50:36.255Z,22.47
2018-01-26T19:53:03.906Z,24.50
2018-01-26T19:55:32.168Z,20.07
2018-01-26T19:58:00.815Z,21.30
2018-01-26T20:00:28.363Z,19.00
2018-01-26T20:02:56.768Z,43.13
2018-01-26T20:05:42.175Z,24.83
2018-01-26T20:08:29.567Z,24.73
2018-01-26T20:10:58.370Z,37.37
2018-01-26T20:13:28.246Z,21.67
2018-01-26T20:15:56.268Z,20.63
2018-01-26T20:18:23.987Z,22.53
2018-01-26T20:20:52.328Z,27.93
2018-01-26T20:23:19.910Z,20.87
2018-01-26T20:25:49.139Z,24.43
2018-01-26T20:28:16.816Z,20.97
2018-01-26T20:30:44.567Z,19.90
2018-01-26T20:33:12.159Z,18.97
2018-01-26T20:35:39.788Z,20.87
2018-01-26T20:38:08.070Z,22.07
2018-01-26T20:40:35.706Z,19.83
2018-01-26T20:43:03.603Z,25.03
2018-01-26T20:45:31.174Z,21.10
2018-01-26T20:47:58.760Z,28.20
2018-01-26T20:50:26.320Z,23.93
2018-01-26T20:52:53.916Z,24.33
2018-01-26T20:55:21.518Z,70.57
2018-01-26T20:57:50.190Z,40.77
2018-01-26T21:00:17.887Z,25.17
2018-01-26T21:02:45.398Z,23.10
2018-01-26T21:05:13.183Z,22.70
2018-01-26T21:07:41.509Z,23.10
2018-01-26T21:10:09.037Z,32.43
2018-01-26T21:12:36.540Z,24.80
2018-01-26T21:15:04.277Z,24.77
2018-01-26T21:17:31.801Z,34.30
2018-01-26T21:19:59.513Z,45.57
2018-01-26T21:22:28.618Z,23.20
2018-01-26T21:24:56.945Z,42.50
2018-01-26T21:27:24.800Z,25.67
2018-01-26T21:29:52.482Z,31.03
2018-01-26T21:32:20.047Z,23.80
2018-01-26T21:34:47.563Z,32.77
2018-01-26T21:37:15.198Z,22.67
2018-01-26T21:39:44.179Z,24.43
2018-01-26T21:42:12.509Z,23.27
2018-01-26T21:44:40.144Z,23.47
2018-01-26T21:47:08.574Z,23.87
2018-01-26T21:49:36.230Z,27.23
2018-01-26T21:52:04.245Z,27.77
2018-01-26T21:54:32.650Z,30.93
2018-01-26T21:57:00.242Z,49.00
2018-01-26T21:59:27.926Z,34.37
2018-01-26T22:01:56.405Z,27.83
2018-01-26T22:04:24.676Z,30.93
2018-01-26T22:06:58.161Z,29.97
2018-01-26T22:09:25.834Z,30.67
2018-01-26T22:11:53.378Z,25.60
2018-01-26T22:14:21.701Z,25.20
2018-01-26T22:16:49.513Z,24.93
2018-01-26T22:19:17.052Z,26.90
2018-01-26T22:21:45.687Z,24.23
2018-01-26T22:24:13.207Z,24.33
2018-01-26T22:26:40.846Z,24.00
2018-01-26T22:29:09.199Z,24.20
2018-01-26T22:31:37.706Z,24.87
2018-01-26T22:34:05.519Z,35.33
2018-01-26T22:36:33.151Z,29.27
2018-01-26T22:39:01.305Z,31.30
2018-01-26T22:41:29.706Z,29.00
2018-01-26T22:43:57.267Z,31.57
2018-01-26T22:46:24.831Z,34.40
2018-01-26T22:48:52.466Z,25.37
2018-01-26T22:51:20.396Z,23.93
2018-01-26T22:53:47.995Z,33.57
2018-01-26T22:56:15.553Z,35.07
2018-01-26T22:58:43.294Z,31.83
2018-01-26T23:01:11.256Z,33.43
2018-01-26T23:03:39.611Z,27.93
2018-01-26T23:06:08.443Z,34.87
2018-01-26T23:08:36.124Z,32.60
2018-01-26T23:11:04.431Z,31.07
2018-01-26T23:13:32.306Z,42.37
2018-01-26T23:16:00.392Z,65.03
2018-01-26T23:18:29.090Z,28.13
2018-01-26T23:20:56.770Z,27.57
2018-01-26T23:23:24.443Z,29.10
2018-01-26T23:25:52.227Z,29.53
2018-01-26T23:28:19.881Z,32.57
2018-01-26T23:30:47.809Z,28.97
2018-01-26T23:33:16.098Z,28.53
2018-01-26T23:35:44.036Z,25.53
2018-01-26T23:38:11.643Z,25.17
2018-01-26T23:40:40.242Z,30.90
2018-01-26T23:43:08.755Z,33.63
2018-01-26T23:45:36.305Z,31.40
2018-01-26T23:48:04.492Z,45.23
2018-01-26T23:50:32.976Z,46.63
2018-01-26T23:53:00.543Z,31.57
2018-01-26T23:55:28.163Z,27.17
2018-01-26T23:57:56.473Z,25.93
